96D

Walhalla Municipal Airport

Walhalla, North Dakota, USA
METAR K96D 190855Z AUTO 31012KT 10SM 11/11 A2973 RMK AO2
Observed Flight Rules
Oct-19 @ 08:55 UTC (10 minutes ago)
Wind Visibility
310° at 12 knots 10 miles
Temperatures Readings
Current 11°C / 52°F
Dewpoint 11°C / 52°F
Humidity 100%
Altimeter 29.73" Hg
Pressure 1007 hPa
Elevation 290
METAR K96D 190855Z AUTO 31012KT 10SM 11/11 A2973 RMK AO2
Observed Flight Rules
Oct-19 @ 08:55 UTC
(10 minutes ago)
Wind Visibility
310° at 12 knots 10 miles
Temperature Dewpoint
11°C / 52°F 11°C / 52°F
Humidity Altimeter Pressure
100% 29.73" Hg 1007 hPa